sensor_id;sensor_type;location;lat;lon;timestamp;P1;durP1;ratioP1;P2;durP2;ratioP2
10667;SDS011;5382;42.136;24.796;2023-01-28T00:01:57;1.98;;;1.25;;
10667;SDS011;5382;42.136;24.796;2023-01-28T00:04:24;1.70;;;1.60;;
10667;SDS011;5382;42.136;24.796;2023-01-28T00:06:51;2.20;;;1.80;;
10667;SDS011;5382;42.136;24.796;2023-01-28T00:09:18;1.73;;;1.42;;
10667;SDS011;5382;42.136;24.796;2023-01-28T00:11:46;1.75;;;1.55;;
10667;SDS011;5382;42.136;24.796;2023-01-28T00:14:13;1.65;;;1.55;;
10667;SDS011;5382;42.136;24.796;2023-01-28T00:16:40;2.00;;;1.70;;
10667;SDS011;5382;42.136;24.796;2023-01-28T00:19:07;3.40;;;2.20;;
10667;SDS011;5382;42.136;24.796;2023-01-28T00:21:33;1.25;;;1.15;;
10667;SDS011;5382;42.136;24.796;2023-01-28T00:24:00;1.63;;;1.52;;
10667;SDS011;5382;42.136;24.796;2023-01-28T00:26:27;2.35;;;1.88;;
10667;SDS011;5382;42.136;24.796;2023-01-28T00:28:55;2.25;;;1.75;;
10667;SDS011;5382;42.136;24.796;2023-01-28T00:31:22;3.00;;;2.17;;
10667;SDS011;5382;42.136;24.796;2023-01-28T00:33:51;1.48;;;1.38;;
10667;SDS011;5382;42.136;24.796;2023-01-28T00:36:19;2.00;;;1.75;;
10667;SDS011;5382;42.136;24.796;2023-01-28T00:38:48;2.58;;;1.95;;
10667;SDS011;5382;42.136;24.796;2023-01-28T00:41:17;1.40;;;1.23;;
10667;SDS011;5382;42.136;24.796;2023-01-28T00:43:46;1.50;;;1.40;;
10667;SDS011;5382;42.136;24.796;2023-01-28T00:46:15;1.77;;;1.67;;
10667;SDS011;5382;42.136;24.796;2023-01-28T00:48:42;2.15;;;1.58;;
10667;SDS011;5382;42.136;24.796;2023-01-28T00:51:10;2.20;;;2.03;;
10667;SDS011;5382;42.136;24.796;2023-01-28T00:53:38;2.80;;;2.00;;
10667;SDS011;5382;42.136;24.796;2023-01-28T00:56:05;1.52;;;1.42;;
10667;SDS011;5382;42.136;24.796;2023-01-28T00:58:33;1.70;;;1.60;;
10667;SDS011;5382;42.136;24.796;2023-01-28T01:01:05;2.38;;;1.70;;
10667;SDS011;5382;42.136;24.796;2023-01-28T01:03:34;2.08;;;1.50;;
10667;SDS011;5382;42.136;24.796;2023-01-28T01:06:02;1.55;;;1.45;;
10667;SDS011;5382;42.136;24.796;2023-01-28T01:08:29;1.65;;;1.52;;
10667;SDS011;5382;42.136;24.796;2023-01-28T01:11:00;2.13;;;1.98;;
10667;SDS011;5382;42.136;24.796;2023-01-28T01:13:28;2.83;;;1.63;;
10667;SDS011;5382;42.136;24.796;2023-01-28T01:16:02;1.85;;;1.75;;
10667;SDS011;5382;42.136;24.796;2023-01-28T01:18:30;1.48;;;1.38;;
10667;SDS011;5382;42.136;24.796;2023-01-28T01:20:59;1.77;;;1.65;;
10667;SDS011;5382;42.136;24.796;2023-01-28T01:23:27;1.73;;;1.52;;
10667;SDS011;5382;42.136;24.796;2023-01-28T01:25:54;1.45;;;1.35;;
10667;SDS011;5382;42.136;24.796;2023-01-28T01:28:21;1.27;;;1.17;;
10667;SDS011;5382;42.136;24.796;2023-01-28T01:30:48;1.63;;;1.38;;
10667;SDS011;5382;42.136;24.796;2023-01-28T01:33:15;1.23;;;1.13;;
10667;SDS011;5382;42.136;24.796;2023-01-28T01:35:42;1.42;;;1.33;;
10667;SDS011;5382;42.136;24.796;2023-01-28T01:38:10;1.02;;;1.02;;
10667;SDS011;5382;42.136;24.796;2023-01-28T01:40:37;1.80;;;1.65;;
10667;SDS011;5382;42.136;24.796;2023-01-28T01:43:11;1.27;;;1.17;;
10667;SDS011;5382;42.136;24.796;2023-01-28T01:45:41;3.30;;;1.60;;
10667;SDS011;5382;42.136;24.796;2023-01-28T01:48:12;1.60;;;1.50;;
10667;SDS011;5382;42.136;24.796;2023-01-28T01:50:44;1.20;;;1.10;;
10667;SDS011;5382;42.136;24.796;2023-01-28T01:53:17;1.67;;;1.58;;
10667;SDS011;5382;42.136;24.796;2023-01-28T01:55:49;1.63;;;1.52;;
10667;SDS011;5382;42.136;24.796;2023-01-28T01:58:19;1.10;;;1.10;;
10667;SDS011;5382;42.136;24.796;2023-01-28T02:00:49;1.50;;;1.40;;
10667;SDS011;5382;42.136;24.796;2023-01-28T02:03:16;1.80;;;1.65;;
10667;SDS011;5382;42.136;24.796;2023-01-28T02:05:49;1.70;;;1.60;;
10667;SDS011;5382;42.136;24.796;2023-01-28T02:08:17;2.10;;;1.83;;
10667;SDS011;5382;42.136;24.796;2023-01-28T02:10:47;1.42;;;1.25;;
10667;SDS011;5382;42.136;24.796;2023-01-28T02:13:16;2.05;;;1.52;;
10667;SDS011;5382;42.136;24.796;2023-01-28T02:15:44;2.42;;;1.63;;
10667;SDS011;5382;42.136;24.796;2023-01-28T02:18:11;1.45;;;1.17;;
10667;SDS011;5382;42.136;24.796;2023-01-28T02:20:43;2.17;;;1.45;;
10667;SDS011;5382;42.136;24.796;2023-01-28T02:23:29;1.60;;;1.50;;
10667;SDS011;5382;42.136;24.796;2023-01-28T02:26:09;2.25;;;1.40;;
10667;SDS011;5382;42.136;24.796;2023-01-28T02:28:54;1.60;;;1.50;;
10667;SDS011;5382;42.136;24.796;2023-01-28T02:31:27;3.80;;;1.65;;
10667;SDS011;5382;42.136;24.796;2023-01-28T02:34:01;2.42;;;1.85;;
10667;SDS011;5382;42.136;24.796;2023-01-28T02:36:41;2.03;;;1.92;;
10667;SDS011;5382;42.136;24.796;2023-01-28T02:39:15;1.73;;;1.60;;
10667;SDS011;5382;42.136;24.796;2023-01-28T02:41:45;0.98;;;0.98;;
10667;SDS011;5382;42.136;24.796;2023-01-28T02:44:17;1.58;;;1.48;;
10667;SDS011;5382;42.136;24.796;2023-01-28T02:46:44;1.83;;;1.45;;
10667;SDS011;5382;42.136;24.796;2023-01-28T02:49:28;3.08;;;1.30;;
10667;SDS011;5382;42.136;24.796;2023-01-28T02:52:13;0.90;;;0.90;;
10667;SDS011;5382;42.136;24.796;2023-01-28T02:55:10;1.42;;;1.33;;
10667;SDS011;5382;42.136;24.796;2023-01-28T02:57:44;1.35;;;1.25;;
10667;SDS011;5382;42.136;24.796;2023-01-28T03:00:24;1.45;;;1.35;;
10667;SDS011;5382;42.136;24.796;2023-01-28T03:02:56;1.42;;;1.33;;
10667;SDS011;5382;42.136;24.796;2023-01-28T03:05:25;1.58;;;1.45;;
10667;SDS011;5382;42.136;24.796;2023-01-28T03:07:56;1.30;;;1.20;;
10667;SDS011;5382;42.136;24.796;2023-01-28T03:10:24;1.50;;;1.40;;
10667;SDS011;5382;42.136;24.796;2023-01-28T03:12:53;1.77;;;1.08;;
10667;SDS011;5382;42.136;24.796;2023-01-28T03:15:40;1.02;;;1.02;;
10667;SDS011;5382;42.136;24.796;2023-01-28T03:18:29;1.67;;;1.02;;
10667;SDS011;5382;42.136;24.796;2023-01-28T03:21:19;1.20;;;1.10;;
10667;SDS011;5382;42.136;24.796;2023-01-28T03:24:08;1.67;;;1.52;;
10667;SDS011;5382;42.136;24.796;2023-01-28T03:26:57;1.35;;;1.25;;
10667;SDS011;5382;42.136;24.796;2023-01-28T03:29:46;1.30;;;1.20;;
10667;SDS011;5382;42.136;24.796;2023-01-28T03:32:33;1.42;;;1.33;;
10667;SDS011;5382;42.136;24.796;2023-01-28T03:35:19;3.58;;;1.52;;
10667;SDS011;5382;42.136;24.796;2023-01-28T03:38:06;1.52;;;1.30;;
10667;SDS011;5382;42.136;24.796;2023-01-28T03:40:50;1.10;;;1.00;;
10667;SDS011;5382;42.136;24.796;2023-01-28T03:43:18;1.15;;;1.05;;
10667;SDS011;5382;42.136;24.796;2023-01-28T03:45:45;1.05;;;1.00;;
10667;SDS011;5382;42.136;24.796;2023-01-28T03:48:16;1.23;;;1.13;;
10667;SDS011;5382;42.136;24.796;2023-01-28T03:50:43;2.22;;;1.52;;
10667;SDS011;5382;42.136;24.796;2023-01-28T03:53:10;1.75;;;1.38;;
10667;SDS011;5382;42.136;24.796;2023-01-28T03:55:39;2.17;;;1.55;;
10667;SDS011;5382;42.136;24.796;2023-01-28T03:58:06;1.65;;;1.52;;
10667;SDS011;5382;42.136;24.796;2023-01-28T04:00:33;1.63;;;1.40;;
10667;SDS011;5382;42.136;24.796;2023-01-28T04:03:02;1.88;;;1.52;;
10667;SDS011;5382;42.136;24.796;2023-01-28T04:05:41;2.30;;;1.63;;
10667;SDS011;5382;42.136;24.796;2023-01-28T04:08:08;1.63;;;1.52;;
10667;SDS011;5382;42.136;24.796;2023-01-28T04:10:36;1.65;;;1.00;;
10667;SDS011;5382;42.136;24.796;2023-01-28T04:13:04;3.53;;;1.45;;
10667;SDS011;5382;42.136;24.796;2023-01-28T04:15:31;1.05;;;0.93;;
10667;SDS011;5382;42.136;24.796;2023-01-28T04:17:59;1.10;;;0.98;;
10667;SDS011;5382;42.136;24.796;2023-01-28T04:20:26;1.02;;;1.02;;
10667;SDS011;5382;42.136;24.796;2023-01-28T04:22:54;1.95;;;1.75;;
10667;SDS011;5382;42.136;24.796;2023-01-28T04:25:21;1.45;;;1.35;;
10667;SDS011;5382;42.136;24.796;2023-01-28T04:27:48;1.52;;;1.20;;
10667;SDS011;5382;42.136;24.796;2023-01-28T04:30:15;3.30;;;1.95;;
10667;SDS011;5382;42.136;24.796;2023-01-28T04:32:43;1.60;;;1.40;;
10667;SDS011;5382;42.136;24.796;2023-01-28T04:35:11;2.33;;;1.50;;
10667;SDS011;5382;42.136;24.796;2023-01-28T04:37:39;1.52;;;1.42;;
10667;SDS011;5382;42.136;24.796;2023-01-28T04:40:08;1.17;;;1.10;;
10667;SDS011;5382;42.136;24.796;2023-01-28T04:42:36;1.33;;;1.23;;
10667;SDS011;5382;42.136;24.796;2023-01-28T04:45:03;2.17;;;1.40;;
10667;SDS011;5382;42.136;24.796;2023-01-28T04:47:30;1.10;;;1.00;;
10667;SDS011;5382;42.136;24.796;2023-01-28T04:49:57;1.20;;;1.10;;
10667;SDS011;5382;42.136;24.796;2023-01-28T04:52:24;1.48;;;1.33;;
10667;SDS011;5382;42.136;24.796;2023-01-28T04:54:51;1.40;;;1.25;;
10667;SDS011;5382;42.136;24.796;2023-01-28T04:57:19;3.88;;;1.35;;
10667;SDS011;5382;42.136;24.796;2023-01-28T04:59:46;1.83;;;1.48;;
10667;SDS011;5382;42.136;24.796;2023-01-28T05:02:12;1.60;;;1.50;;
10667;SDS011;5382;42.136;24.796;2023-01-28T05:04:39;2.53;;;1.83;;
10667;SDS011;5382;42.136;24.796;2023-01-28T05:07:06;2.65;;;1.33;;
10667;SDS011;5382;42.136;24.796;2023-01-28T05:09:33;0.68;;;0.68;;
10667;SDS011;5382;42.136;24.796;2023-01-28T05:11:59;0.93;;;0.93;;
10667;SDS011;5382;42.136;24.796;2023-01-28T05:14:27;1.67;;;1.40;;
10667;SDS011;5382;42.136;24.796;2023-01-28T05:16:54;1.50;;;1.25;;
10667;SDS011;5382;42.136;24.796;2023-01-28T05:19:21;1.83;;;1.63;;
10667;SDS011;5382;42.136;24.796;2023-01-28T05:21:48;2.03;;;1.70;;
10667;SDS011;5382;42.136;24.796;2023-01-28T05:24:14;1.77;;;1.52;;
10667;SDS011;5382;42.136;24.796;2023-01-28T05:26:41;1.98;;;1.55;;
10667;SDS011;5382;42.136;24.796;2023-01-28T05:29:08;1.48;;;1.38;;
10667;SDS011;5382;42.136;24.796;2023-01-28T05:31:37;1.52;;;1.20;;
10667;SDS011;5382;42.136;24.796;2023-01-28T05:34:03;1.88;;;1.40;;
10667;SDS011;5382;42.136;24.796;2023-01-28T05:36:30;1.42;;;1.30;;
10667;SDS011;5382;42.136;24.796;2023-01-28T05:38:57;2.63;;;1.30;;
10667;SDS011;5382;42.136;24.796;2023-01-28T05:41:24;1.63;;;1.30;;
10667;SDS011;5382;42.136;24.796;2023-01-28T05:43:51;1.25;;;1.17;;
10667;SDS011;5382;42.136;24.796;2023-01-28T05:46:18;1.15;;;1.05;;
10667;SDS011;5382;42.136;24.796;2023-01-28T05:48:46;2.70;;;1.15;;
10667;SDS011;5382;42.136;24.796;2023-01-28T05:51:15;1.98;;;1.65;;
10667;SDS011;5382;42.136;24.796;2023-01-28T05:53:41;1.83;;;1.70;;
10667;SDS011;5382;42.136;24.796;2023-01-28T05:56:08;1.92;;;1.55;;
10667;SDS011;5382;42.136;24.796;2023-01-28T05:58:35;1.95;;;1.33;;
10667;SDS011;5382;42.136;24.796;2023-01-28T06:01:02;1.73;;;1.52;;
10667;SDS011;5382;42.136;24.796;2023-01-28T06:03:29;4.53;;;1.77;;
10667;SDS011;5382;42.136;24.796;2023-01-28T06:05:57;2.30;;;1.73;;
10667;SDS011;5382;42.136;24.796;2023-01-28T06:08:24;2.85;;;1.95;;
10667;SDS011;5382;42.136;24.796;2023-01-28T06:10:51;2.58;;;1.30;;
10667;SDS011;5382;42.136;24.796;2023-01-28T06:13:18;1.42;;;1.23;;
10667;SDS011;5382;42.136;24.796;2023-01-28T06:15:47;3.08;;;1.42;;
10667;SDS011;5382;42.136;24.796;2023-01-28T06:18:14;2.50;;;1.55;;
10667;SDS011;5382;42.136;24.796;2023-01-28T06:20:41;2.17;;;1.67;;
10667;SDS011;5382;42.136;24.796;2023-01-28T06:23:09;2.55;;;1.48;;
10667;SDS011;5382;42.136;24.796;2023-01-28T06:25:36;3.05;;;2.10;;
10667;SDS011;5382;42.136;24.796;2023-01-28T06:28:03;3.47;;;2.25;;
10667;SDS011;5382;42.136;24.796;2023-01-28T06:30:30;2.20;;;1.75;;
10667;SDS011;5382;42.136;24.796;2023-01-28T06:32:56;1.98;;;1.85;;
10667;SDS011;5382;42.136;24.796;2023-01-28T06:35:23;2.78;;;2.17;;
10667;SDS011;5382;42.136;24.796;2023-01-28T06:37:50;2.55;;;1.77;;
10667;SDS011;5382;42.136;24.796;2023-01-28T06:40:19;4.43;;;2.10;;
10667;SDS011;5382;42.136;24.796;2023-01-28T06:42:47;3.30;;;1.77;;
10667;SDS011;5382;42.136;24.796;2023-01-28T06:45:14;1.98;;;1.77;;
10667;SDS011;5382;42.136;24.796;2023-01-28T06:47:41;3.15;;;1.70;;
10667;SDS011;5382;42.136;24.796;2023-01-28T06:50:08;2.42;;;2.22;;
10667;SDS011;5382;42.136;24.796;2023-01-28T06:52:36;1.73;;;1.48;;
10667;SDS011;5382;42.136;24.796;2023-01-28T06:55:03;2.17;;;1.98;;
10667;SDS011;5382;42.136;24.796;2023-01-28T06:57:32;2.00;;;1.80;;
10667;SDS011;5382;42.136;24.796;2023-01-28T06:59:58;4.93;;;2.10;;
10667;SDS011;5382;42.136;24.796;2023-01-28T07:02:25;2.05;;;1.85;;
10667;SDS011;5382;42.136;24.796;2023-01-28T07:04:52;2.60;;;2.00;;
10667;SDS011;5382;42.136;24.796;2023-01-28T07:07:19;2.67;;;2.33;;
10667;SDS011;5382;42.136;24.796;2023-01-28T07:09:45;1.63;;;1.33;;
10667;SDS011;5382;42.136;24.796;2023-01-28T07:12:12;2.00;;;1.67;;
10667;SDS011;5382;42.136;24.796;2023-01-28T07:14:41;1.70;;;1.52;;
10667;SDS011;5382;42.136;24.796;2023-01-28T07:17:07;2.70;;;1.63;;
10667;SDS011;5382;42.136;24.796;2023-01-28T07:19:34;3.03;;;1.65;;
10667;SDS011;5382;42.136;24.796;2023-01-28T07:22:01;2.38;;;1.90;;
10667;SDS011;5382;42.136;24.796;2023-01-28T07:24:28;4.60;;;2.00;;
10667;SDS011;5382;42.136;24.796;2023-01-28T07:26:55;1.92;;;1.63;;
10667;SDS011;5382;42.136;24.796;2023-01-28T07:29:22;2.35;;;1.90;;
10667;SDS011;5382;42.136;24.796;2023-01-28T07:31:50;3.03;;;1.92;;
10667;SDS011;5382;42.136;24.796;2023-01-28T07:34:17;1.75;;;1.15;;
10667;SDS011;5382;42.136;24.796;2023-01-28T07:36:44;3.30;;;1.52;;
10667;SDS011;5382;42.136;24.796;2023-01-28T07:39:11;1.50;;;1.40;;
10667;SDS011;5382;42.136;24.796;2023-01-28T07:41:38;1.45;;;1.33;;
10667;SDS011;5382;42.136;24.796;2023-01-28T07:44:04;3.22;;;1.88;;
10667;SDS011;5382;42.136;24.796;2023-01-28T07:46:31;2.80;;;1.75;;
10667;SDS011;5382;42.136;24.796;2023-01-28T07:49:00;2.88;;;2.05;;
10667;SDS011;5382;42.136;24.796;2023-01-28T07:51:26;1.80;;;1.70;;
10667;SDS011;5382;42.136;24.796;2023-01-28T07:53:53;4.85;;;2.00;;
10667;SDS011;5382;42.136;24.796;2023-01-28T07:56:20;3.65;;;2.10;;
10667;SDS011;5382;42.136;24.796;2023-01-28T07:58:48;2.88;;;1.95;;
10667;SDS011;5382;42.136;24.796;2023-01-28T08:01:15;2.03;;;1.83;;
10667;SDS011;5382;42.136;24.796;2023-01-28T08:03:42;4.32;;;1.55;;
10667;SDS011;5382;42.136;24.796;2023-01-28T08:06:10;2.75;;;2.47;;
10667;SDS011;5382;42.136;24.796;2023-01-28T08:08:38;2.13;;;1.98;;
10667;SDS011;5382;42.136;24.796;2023-01-28T08:11:06;2.40;;;1.77;;
10667;SDS011;5382;42.136;24.796;2023-01-28T08:13:33;7.72;;;2.47;;
10667;SDS011;5382;42.136;24.796;2023-01-28T08:16:00;2.17;;;1.55;;
10667;SDS011;5382;42.136;24.796;2023-01-28T08:18:27;1.67;;;1.58;;
10667;SDS011;5382;42.136;24.796;2023-01-28T08:20:54;1.60;;;1.50;;
10667;SDS011;5382;42.136;24.796;2023-01-28T08:23:23;3.33;;;2.67;;
10667;SDS011;5382;42.136;24.796;2023-01-28T08:25:51;3.00;;;2.58;;
10667;SDS011;5382;42.136;24.796;2023-01-28T08:28:19;2.40;;;2.20;;
10667;SDS011;5382;42.136;24.796;2023-01-28T08:30:46;3.25;;;2.22;;
10667;SDS011;5382;42.136;24.796;2023-01-28T08:33:14;2.58;;;2.35;;
10667;SDS011;5382;42.136;24.796;2023-01-28T08:35:42;11.15;;;2.15;;
10667;SDS011;5382;42.136;24.796;2023-01-28T08:38:09;1.90;;;1.75;;
10667;SDS011;5382;42.136;24.796;2023-01-28T08:40:40;1.88;;;1.52;;
10667;SDS011;5382;42.136;24.796;2023-01-28T08:43:07;3.15;;;2.63;;
10667;SDS011;5382;42.136;24.796;2023-01-28T08:45:34;2.83;;;2.40;;
10667;SDS011;5382;42.136;24.796;2023-01-28T08:48:02;2.13;;;1.55;;
10667;SDS011;5382;42.136;24.796;2023-01-28T08:50:33;2.85;;;2.17;;
10667;SDS011;5382;42.136;24.796;2023-01-28T08:53:02;1.65;;;1.40;;
10667;SDS011;5382;42.136;24.796;2023-01-28T08:55:32;2.20;;;1.48;;
10667;SDS011;5382;42.136;24.796;2023-01-28T08:58:02;1.40;;;1.30;;
10667;SDS011;5382;42.136;24.796;2023-01-28T09:00:29;2.50;;;2.05;;
10667;SDS011;5382;42.136;24.796;2023-01-28T09:02:56;3.03;;;1.67;;
10667;SDS011;5382;42.136;24.796;2023-01-28T09:05:23;1.95;;;1.75;;
10667;SDS011;5382;42.136;24.796;2023-01-28T09:07:50;1.83;;;1.73;;
10667;SDS011;5382;42.136;24.796;2023-01-28T09:10:17;1.52;;;1.42;;
10667;SDS011;5382;42.136;24.796;2023-01-28T09:12:44;3.45;;;1.98;;
10667;SDS011;5382;42.136;24.796;2023-01-28T09:15:13;1.50;;;1.40;;
10667;SDS011;5382;42.136;24.796;2023-01-28T09:17:41;1.33;;;1.17;;
10667;SDS011;5382;42.136;24.796;2023-01-28T09:20:09;2.78;;;1.50;;
10667;SDS011;5382;42.136;24.796;2023-01-28T09:22:37;2.58;;;1.83;;
10667;SDS011;5382;42.136;24.796;2023-01-28T09:25:04;2.00;;;1.48;;
10667;SDS011;5382;42.136;24.796;2023-01-28T09:27:31;2.53;;;1.23;;
10667;SDS011;5382;42.136;24.796;2023-01-28T09:29:59;2.10;;;1.27;;
10667;SDS011;5382;42.136;24.796;2023-01-28T09:32:27;1.92;;;1.80;;
10667;SDS011;5382;42.136;24.796;2023-01-28T09:34:55;1.95;;;1.67;;
10667;SDS011;5382;42.136;24.796;2023-01-28T09:37:22;1.33;;;1.00;;
10667;SDS011;5382;42.136;24.796;2023-01-28T09:39:49;1.60;;;1.50;;
10667;SDS011;5382;42.136;24.796;2023-01-28T09:42:26;1.42;;;1.30;;
10667;SDS011;5382;42.136;24.796;2023-01-28T09:45:06;1.85;;;1.60;;
10667;SDS011;5382;42.136;24.796;2023-01-28T09:47:42;3.22;;;1.60;;
10667;SDS011;5382;42.136;24.796;2023-01-28T09:50:13;1.40;;;1.30;;
10667;SDS011;5382;42.136;24.796;2023-01-28T09:52:43;1.38;;;1.27;;
10667;SDS011;5382;42.136;24.796;2023-01-28T09:55:14;1.30;;;1.13;;
10667;SDS011;5382;42.136;24.796;2023-01-28T09:57:46;5.90;;;3.05;;
10667;SDS011;5382;42.136;24.796;2023-01-28T10:00:17;2.88;;;2.00;;
10667;SDS011;5382;42.136;24.796;2023-01-28T10:05:52;2.45;;;2.15;;
10667;SDS011;5382;42.136;24.796;2023-01-28T10:08:33;3.17;;;1.85;;
10667;SDS011;5382;42.136;24.796;2023-01-28T10:11:23;2.75;;;1.30;;
10667;SDS011;5382;42.136;24.796;2023-01-28T10:14:04;5.05;;;2.30;;
10667;SDS011;5382;42.136;24.796;2023-01-28T10:16:39;4.97;;;2.13;;
10667;SDS011;5382;42.136;24.796;2023-01-28T10:19:09;6.57;;;2.77;;
10667;SDS011;5382;42.136;24.796;2023-01-28T10:21:45;1.75;;;1.58;;
10667;SDS011;5382;42.136;24.796;2023-01-28T10:24:16;3.10;;;1.80;;
10667;SDS011;5382;42.136;24.796;2023-01-28T10:26:49;2.05;;;1.60;;
10667;SDS011;5382;42.136;24.796;2023-01-28T10:29:17;2.17;;;1.67;;
10667;SDS011;5382;42.136;24.796;2023-01-28T10:31:49;3.35;;;2.20;;
10667;SDS011;5382;42.136;24.796;2023-01-28T10:34:18;1.85;;;1.73;;
10667;SDS011;5382;42.136;24.796;2023-01-28T10:36:47;1.63;;;1.40;;
10667;SDS011;5382;42.136;24.796;2023-01-28T10:39:17;2.20;;;1.77;;
10667;SDS011;5382;42.136;24.796;2023-01-28T10:41:47;2.17;;;1.73;;
10667;SDS011;5382;42.136;24.796;2023-01-28T10:44:15;3.53;;;1.90;;
10667;SDS011;5382;42.136;24.796;2023-01-28T10:46:47;2.20;;;2.00;;
10667;SDS011;5382;42.136;24.796;2023-01-28T10:49:17;1.80;;;1.40;;
10667;SDS011;5382;42.136;24.796;2023-01-28T10:51:52;3.17;;;2.00;;
10667;SDS011;5382;42.136;24.796;2023-01-28T10:54:20;2.85;;;2.20;;
10667;SDS011;5382;42.136;24.796;2023-01-28T10:56:49;2.63;;;2.30;;
10667;SDS011;5382;42.136;24.796;2023-01-28T10:59:19;2.40;;;2.00;;
10667;SDS011;5382;42.136;24.796;2023-01-28T11:01:51;1.60;;;1.50;;
10667;SDS011;5382;42.136;24.796;2023-01-28T11:04:22;1.83;;;1.45;;
10667;SDS011;5382;42.136;24.796;2023-01-28T11:06:53;2.13;;;1.92;;
10667;SDS011;5382;42.136;24.796;2023-01-28T11:09:23;2.40;;;1.90;;
10667;SDS011;5382;42.136;24.796;2023-01-28T11:11:52;1.75;;;1.65;;
10667;SDS011;5382;42.136;24.796;2023-01-28T11:14:19;2.00;;;1.80;;
10667;SDS011;5382;42.136;24.796;2023-01-28T11:16:47;2.15;;;1.77;;
10667;SDS011;5382;42.136;24.796;2023-01-28T11:19:16;2.00;;;1.83;;
10667;SDS011;5382;42.136;24.796;2023-01-28T11:21:47;1.65;;;1.38;;
10667;SDS011;5382;42.136;24.796;2023-01-28T11:24:17;4.68;;;2.35;;
10667;SDS011;5382;42.136;24.796;2023-01-28T11:26:48;5.20;;;2.72;;
10667;SDS011;5382;42.136;24.796;2023-01-28T11:29:20;4.00;;;3.30;;
10667;SDS011;5382;42.136;24.796;2023-01-28T11:31:49;4.00;;;3.42;;
10667;SDS011;5382;42.136;24.796;2023-01-28T11:34:16;2.63;;;1.88;;
10667;SDS011;5382;42.136;24.796;2023-01-28T11:36:54;3.55;;;2.30;;
10667;SDS011;5382;42.136;24.796;2023-01-28T11:39:30;1.90;;;1.80;;
10667;SDS011;5382;42.136;24.796;2023-01-28T11:42:09;2.60;;;2.40;;
10667;SDS011;5382;42.136;24.796;2023-01-28T11:44:38;4.97;;;2.60;;
10667;SDS011;5382;42.136;24.796;2023-01-28T11:47:12;3.55;;;2.17;;
10667;SDS011;5382;42.136;24.796;2023-01-28T11:50:07;2.58;;;2.20;;
10667;SDS011;5382;42.136;24.796;2023-01-28T11:52:50;2.72;;;2.13;;
10667;SDS011;5382;42.136;24.796;2023-01-28T11:55:32;2.53;;;2.17;;
10667;SDS011;5382;42.136;24.796;2023-01-28T11:58:07;4.60;;;2.58;;
10667;SDS011;5382;42.136;24.796;2023-01-28T12:00:46;2.40;;;1.98;;
10667;SDS011;5382;42.136;24.796;2023-01-28T12:09:07;2.60;;;2.40;;
10667;SDS011;5382;42.136;24.796;2023-01-28T12:11:50;2.60;;;2.40;;
10667;SDS011;5382;42.136;24.796;2023-01-28T12:17:33;2.42;;;2.20;;
10667;SDS011;5382;42.136;24.796;2023-01-28T12:20:13;3.40;;;2.55;;
10667;SDS011;5382;42.136;24.796;2023-01-28T12:22:56;3.63;;;3.08;;
10667;SDS011;5382;42.136;24.796;2023-01-28T12:25:34;3.20;;;2.90;;
10667;SDS011;5382;42.136;24.796;2023-01-28T12:28:17;2.60;;;2.40;;
10667;SDS011;5382;42.136;24.796;2023-01-28T12:31:01;2.75;;;1.83;;
10667;SDS011;5382;42.136;24.796;2023-01-28T12:33:43;2.80;;;2.53;;
10667;SDS011;5382;42.136;24.796;2023-01-28T12:36:29;3.47;;;2.83;;
10667;SDS011;5382;42.136;24.796;2023-01-28T12:39:10;5.43;;;3.58;;
10667;SDS011;5382;42.136;24.796;2023-01-28T12:41:47;3.47;;;2.75;;
10667;SDS011;5382;42.136;24.796;2023-01-28T12:44:21;2.50;;;2.30;;
10667;SDS011;5382;42.136;24.796;2023-01-28T12:46:53;2.58;;;2.00;;
10667;SDS011;5382;42.136;24.796;2023-01-28T12:49:24;2.53;;;2.28;;
10667;SDS011;5382;42.136;24.796;2023-01-28T12:51:59;4.82;;;2.60;;
10667;SDS011;5382;42.136;24.796;2023-01-28T12:54:32;4.22;;;3.00;;
10667;SDS011;5382;42.136;24.796;2023-01-28T12:57:04;3.53;;;2.83;;
10667;SDS011;5382;42.136;24.796;2023-01-28T12:59:37;4.70;;;3.40;;
10667;SDS011;5382;42.136;24.796;2023-01-28T13:02:17;5.47;;;3.45;;
10667;SDS011;5382;42.136;24.796;2023-01-28T13:04:53;3.75;;;3.15;;
10667;SDS011;5382;42.136;24.796;2023-01-28T13:07:26;2.38;;;2.17;;
10667;SDS011;5382;42.136;24.796;2023-01-28T13:10:01;5.07;;;3.47;;
10667;SDS011;5382;42.136;24.796;2023-01-28T13:12:30;3.05;;;2.80;;
10667;SDS011;5382;42.136;24.796;2023-01-28T13:15:00;5.85;;;3.35;;
10667;SDS011;5382;42.136;24.796;2023-01-28T13:17:29;4.85;;;3.60;;
10667;SDS011;5382;42.136;24.796;2023-01-28T13:19:58;3.75;;;2.60;;
10667;SDS011;5382;42.136;24.796;2023-01-28T13:22:26;5.90;;;2.40;;
10667;SDS011;5382;42.136;24.796;2023-01-28T13:24:55;4.20;;;3.08;;
10667;SDS011;5382;42.136;24.796;2023-01-28T13:27:24;3.00;;;2.42;;
10667;SDS011;5382;42.136;24.796;2023-01-28T13:30:04;3.67;;;2.97;;
10667;SDS011;5382;42.136;24.796;2023-01-28T13:32:53;3.45;;;2.78;;
10667;SDS011;5382;42.136;24.796;2023-01-28T13:38:08;7.47;;;4.13;;
10667;SDS011;5382;42.136;24.796;2023-01-28T13:40:41;5.10;;;3.47;;
10667;SDS011;5382;42.136;24.796;2023-01-28T13:43:25;6.57;;;3.88;;
10667;SDS011;5382;42.136;24.796;2023-01-28T13:46:03;4.47;;;3.58;;
10667;SDS011;5382;42.136;24.796;2023-01-28T13:48:32;7.25;;;3.80;;
10667;SDS011;5382;42.136;24.796;2023-01-28T13:51:08;6.65;;;3.78;;
10667;SDS011;5382;42.136;24.796;2023-01-28T13:53:44;3.67;;;2.65;;
10667;SDS011;5382;42.136;24.796;2023-01-28T13:56:18;6.15;;;5.38;;
10667;SDS011;5382;42.136;24.796;2023-01-28T13:59:02;6.28;;;5.68;;
10667;SDS011;5382;42.136;24.796;2023-01-28T14:02:18;5.70;;;4.18;;
10667;SDS011;5382;42.136;24.796;2023-01-28T14:05:18;4.80;;;3.70;;
10667;SDS011;5382;42.136;24.796;2023-01-28T14:11:14;3.25;;;2.50;;
10667;SDS011;5382;42.136;24.796;2023-01-28T14:17:01;3.42;;;3.13;;
10667;SDS011;5382;42.136;24.796;2023-01-28T14:19:36;5.15;;;4.18;;
10667;SDS011;5382;42.136;24.796;2023-01-28T14:22:07;6.80;;;3.75;;
10667;SDS011;5382;42.136;24.796;2023-01-28T14:24:35;4.00;;;3.20;;
10667;SDS011;5382;42.136;24.796;2023-01-28T14:27:04;5.07;;;3.25;;
10667;SDS011;5382;42.136;24.796;2023-01-28T14:29:40;6.18;;;4.07;;
10667;SDS011;5382;42.136;24.796;2023-01-28T14:32:16;3.50;;;2.80;;
10667;SDS011;5382;42.136;24.796;2023-01-28T14:34:48;3.90;;;3.45;;
10667;SDS011;5382;42.136;24.796;2023-01-28T14:37:16;5.38;;;4.03;;
10667;SDS011;5382;42.136;24.796;2023-01-28T14:39:45;6.72;;;3.20;;
10667;SDS011;5382;42.136;24.796;2023-01-28T14:42:17;5.50;;;4.15;;
10667;SDS011;5382;42.136;24.796;2023-01-28T14:44:47;3.13;;;2.83;;
10667;SDS011;5382;42.136;24.796;2023-01-28T14:50:32;7.00;;;4.07;;
10667;SDS011;5382;42.136;24.796;2023-01-28T14:56:06;6.32;;;3.80;;
10667;SDS011;5382;42.136;24.796;2023-01-28T14:58:42;5.50;;;3.30;;
10667;SDS011;5382;42.136;24.796;2023-01-28T15:01:19;4.70;;;3.50;;
10667;SDS011;5382;42.136;24.796;2023-01-28T15:03:47;7.57;;;5.40;;
10667;SDS011;5382;42.136;24.796;2023-01-28T15:06:15;4.75;;;4.28;;
10667;SDS011;5382;42.136;24.796;2023-01-28T15:08:45;5.60;;;4.00;;
10667;SDS011;5382;42.136;24.796;2023-01-28T15:11:12;3.88;;;3.40;;
10667;SDS011;5382;42.136;24.796;2023-01-28T15:13:42;4.88;;;3.65;;
10667;SDS011;5382;42.136;24.796;2023-01-28T15:16:14;14.63;;;9.50;;
10667;SDS011;5382;42.136;24.796;2023-01-28T15:18:44;5.38;;;4.20;;
10667;SDS011;5382;42.136;24.796;2023-01-28T15:21:12;6.00;;;4.40;;
10667;SDS011;5382;42.136;24.796;2023-01-28T15:23:41;6.13;;;4.60;;
10667;SDS011;5382;42.136;24.796;2023-01-28T15:26:11;6.43;;;5.03;;
10667;SDS011;5382;42.136;24.796;2023-01-28T15:28:42;7.45;;;5.40;;
10667;SDS011;5382;42.136;24.796;2023-01-28T15:31:17;7.63;;;5.88;;
10667;SDS011;5382;42.136;24.796;2023-01-28T15:33:45;5.82;;;4.65;;
10667;SDS011;5382;42.136;24.796;2023-01-28T15:36:21;8.18;;;5.72;;
10667;SDS011;5382;42.136;24.796;2023-01-28T15:38:49;5.35;;;4.80;;